createdAt,value
2022-09-01T00:01:39.332Z,16.90
2022-09-01T00:04:08.930Z,16.90
2022-09-01T00:06:38.885Z,16.90
2022-09-01T00:09:12.331Z,16.90
2022-09-01T00:11:50.298Z,16.90
2022-09-01T00:14:29.800Z,16.90
2022-09-01T00:17:02.227Z,16.80
2022-09-01T00:19:29.803Z,16.80
2022-09-01T00:22:03.601Z,16.80
2022-09-01T00:24:32.674Z,16.80
2022-09-01T00:27:07.214Z,16.80
2022-09-01T00:29:43.456Z,16.80
2022-09-01T00:32:14.608Z,16.80
2022-09-01T00:34:44.633Z,16.80
2022-09-01T00:37:11.521Z,16.70
2022-09-01T00:39:38.376Z,16.70
2022-09-01T00:42:07.948Z,16.70
2022-09-01T00:44:39.296Z,16.70
2022-09-01T00:47:09.888Z,16.70
2022-09-01T00:49:53.033Z,16.60
2022-09-01T00:52:21.408Z,16.50
2022-09-01T00:54:56.860Z,16.40
2022-09-01T00:57:28.789Z,16.30
2022-09-01T01:00:01.258Z,16.10
2022-09-01T01:02:30.844Z,16.10
2022-09-01T01:05:02.560Z,16.00
2022-09-01T01:07:29.413Z,15.90
2022-09-01T01:09:56.252Z,15.90
2022-09-01T01:12:23.907Z,15.80
2022-09-01T01:14:57.092Z,15.80
2022-09-01T01:17:24.620Z,15.70
2022-09-01T01:20:14.783Z,15.70
2022-09-01T01:23:05.652Z,15.70
2022-09-01T01:25:42.095Z,15.70
2022-09-01T01:28:15.907Z,15.80
2022-09-01T01:30:48.927Z,15.80
2022-09-01T01:33:21.296Z,15.80
2022-09-01T01:35:51.340Z,15.80
2022-09-01T01:38:22.942Z,15.80
2022-09-01T01:40:51.795Z,15.80
2022-09-01T01:43:21.845Z,15.70
2022-09-01T01:45:52.541Z,15.80
2022-09-01T01:48:27.534Z,15.70
2022-09-01T01:50:58.242Z,15.80
2022-09-01T01:53:27.754Z,15.80
2022-09-01T01:55:56.172Z,15.70
2022-09-01T01:58:29.073Z,15.70
2022-09-01T02:00:59.472Z,15.70
2022-09-01T02:03:38.695Z,15.70
2022-09-01T02:06:15.224Z,15.70
2022-09-01T02:08:44.942Z,15.70
2022-09-01T02:11:17.333Z,15.70
2022-09-01T02:13:47.002Z,15.70
2022-09-01T02:16:14.365Z,15.70
2022-09-01T02:18:48.277Z,15.70
2022-09-01T02:21:19.583Z,15.70
2022-09-01T02:23:59.618Z,15.70
2022-09-01T02:26:38.751Z,15.70
2022-09-01T02:29:18.200Z,15.70
2022-09-01T02:31:46.355Z,15.80
2022-09-01T02:34:20.353Z,15.80
2022-09-01T02:36:51.300Z,15.80
2022-09-01T02:39:30.014Z,15.90
2022-09-01T02:42:03.692Z,15.90
2022-09-01T02:44:33.027Z,15.90
2022-09-01T02:47:04.503Z,15.90
2022-09-01T02:49:39.710Z,16.00
2022-09-01T02:52:09.224Z,16.00
2022-09-01T02:54:40.766Z,16.00
2022-09-01T02:57:12.774Z,16.00
2022-09-01T02:59:47.324Z,16.00
2022-09-01T03:02:16.993Z,16.00
2022-09-01T03:04:54.283Z,16.00
2022-09-01T03:07:23.851Z,16.00
2022-09-01T03:09:53.027Z,16.00
2022-09-01T03:12:27.218Z,16.00
2022-09-01T03:14:59.592Z,16.00
2022-09-01T03:17:32.124Z,16.00
2022-09-01T03:20:00.962Z,16.00
2022-09-01T03:22:32.976Z,16.00
2022-09-01T03:25:02.642Z,16.00
2022-09-01T03:27:32.446Z,16.00
2022-09-01T03:30:02.515Z,16.00
2022-09-01T03:32:32.623Z,16.00
2022-09-01T03:35:00.407Z,16.00
2022-09-01T03:37:27.241Z,16.00
2022-09-01T03:40:00.089Z,16.00
2022-09-01T03:42:31.678Z,16.00
2022-09-01T03:45:09.430Z,15.90
2022-09-01T03:47:40.370Z,15.90
2022-09-01T03:50:13.910Z,15.90
2022-09-01T03:52:44.702Z,15.90
2022-09-01T03:55:21.270Z,15.90
2022-09-01T03:57:55.274Z,15.90
2022-09-01T04:00:24.941Z,15.90
2022-09-01T04:03:01.314Z,15.90
2022-09-01T04:05:33.910Z,15.80
2022-09-01T04:08:08.821Z,15.90
2022-09-01T04:10:37.796Z,15.80
2022-09-01T04:13:09.040Z,15.80
2022-09-01T04:15:40.314Z,15.80
2022-09-01T04:18:10.875Z,15.90
2022-09-01T04:20:49.194Z,15.80
2022-09-01T04:23:26.642Z,15.90
2022-09-01T04:26:23.197Z,15.80
2022-09-01T04:28:52.703Z,15.80
2022-09-01T04:31:26.879Z,15.80
2022-09-01T04:33:56.717Z,15.80
2022-09-01T04:36:34.111Z,15.80
2022-09-01T04:39:01.654Z,15.90
2022-09-01T04:41:32.701Z,15.90
2022-09-01T04:44:07.471Z,16.00
2022-09-01T04:46:42.498Z,16.00
2022-09-01T04:49:13.357Z,16.00
2022-09-01T04:51:53.133Z,16.10
2022-09-01T04:54:23.307Z,16.20
2022-09-01T04:56:57.342Z,16.30
2022-09-01T04:59:27.371Z,16.30
2022-09-01T05:02:00.810Z,16.30
2022-09-01T05:04:37.320Z,16.30
2022-09-01T05:07:05.049Z,16.30
2022-09-01T05:09:38.735Z,16.40
2022-09-01T05:12:12.857Z,16.50
2022-09-01T05:14:48.538Z,16.60
2022-09-01T05:17:21.661Z,16.50
2022-09-01T05:19:51.093Z,16.60
2022-09-01T05:22:24.055Z,16.60
2022-09-01T05:24:55.252Z,16.60
2022-09-01T05:27:25.911Z,16.80
2022-09-01T05:30:03.800Z,17.20
2022-09-01T05:32:32.451Z,17.60
2022-09-01T05:34:59.967Z,18.00
2022-09-01T05:37:31.976Z,18.10
2022-09-01T05:40:01.899Z,18.40
2022-09-01T05:42:42.067Z,18.80
2022-09-01T05:45:11.781Z,19.30
2022-09-01T05:47:39.649Z,19.90
2022-09-01T05:50:14.074Z,20.40
2022-09-01T05:52:44.950Z,20.80
2022-09-01T05:55:11.806Z,21.20
2022-09-01T05:57:39.981Z,21.50
2022-09-01T06:00:12.555Z,21.70
2022-09-01T06:02:40.430Z,21.90
2022-09-01T06:05:08.645Z,22.10
2022-09-01T06:07:38.151Z,22.30
2022-09-01T06:10:05.564Z,22.50
2022-09-01T06:12:33.825Z,22.60
2022-09-01T06:15:01.299Z,22.90
2022-09-01T06:17:30.937Z,23.00
2022-09-01T06:20:02.111Z,23.20
2022-09-01T06:22:31.924Z,23.40
2022-09-01T06:25:02.205Z,23.50
2022-09-01T06:27:29.794Z,23.70
2022-09-01T06:29:58.748Z,24.00
2022-09-01T06:32:27.541Z,24.30
2022-09-01T06:35:03.660Z,24.50
2022-09-01T06:37:34.452Z,24.70
2022-09-01T06:40:04.573Z,24.80
2022-09-01T06:42:35.357Z,24.90
2022-09-01T06:45:08.005Z,24.90
2022-09-01T06:47:38.570Z,25.00
2022-09-01T06:50:08.890Z,25.10
2022-09-01T06:55:31.179Z,25.40
2022-09-01T06:58:15.122Z,25.50
2022-09-01T07:00:42.310Z,25.60
2022-09-01T07:03:10.049Z,25.70
2022-09-01T07:08:33.026Z,26.00
2022-09-01T07:12:08.309Z,26.20
2022-09-01T07:16:52.432Z,26.40
2022-09-01T07:19:23.346Z,26.40
2022-09-01T07:22:09.950Z,26.40
2022-09-01T07:25:11.709Z,26.50
2022-09-01T07:27:50.625Z,26.70
2022-09-01T07:39:48.193Z,26.30
2022-09-01T07:42:55.574Z,26.50
2022-09-01T07:44:21.692Z,26.30
2022-09-01T07:47:19.405Z,26.30
2022-09-01T07:50:11.455Z,26.10
2022-09-01T07:52:27.403Z,25.90
2022-09-01T07:54:54.265Z,25.70
2022-09-01T07:57:23.004Z,25.50
2022-09-01T07:59:53.926Z,25.40
2022-09-01T08:02:20.782Z,25.10
2022-09-01T08:04:48.987Z,24.90
2022-09-01T08:07:16.351Z,24.70
2022-09-01T08:09:44.551Z,24.50
2022-09-01T08:12:11.788Z,24.50
2022-09-01T08:14:38.643Z,24.20
2022-09-01T08:19:53.686Z,24.00
2022-09-01T08:22:25.554Z,24.00
2022-09-01T08:24:52.854Z,24.00
2022-09-01T08:27:19.709Z,23.90
2022-09-01T08:29:46.440Z,23.80
2022-09-01T08:32:13.184Z,23.80
2022-09-01T08:34:40.046Z,23.70
2022-09-01T08:37:06.934Z,23.60
2022-09-01T08:39:34.056Z,23.60
2022-09-01T08:42:00.775Z,23.70
2022-09-01T08:44:56.173Z,23.80
2022-09-01T08:47:39.231Z,23.90
2022-09-01T08:50:12.029Z,23.70
2022-09-01T08:53:09.080Z,23.90
2022-09-01T08:55:40.242Z,23.90
2022-09-01T08:58:07.030Z,23.90
2022-09-01T09:00:39.497Z,24.10
2022-09-01T09:03:43.209Z,24.30
2022-09-01T09:06:13.095Z,24.40
2022-09-01T09:09:03.864Z,24.50
2022-09-01T09:12:02.595Z,24.40
2022-09-01T09:15:00.744Z,24.30
2022-09-01T09:17:30.991Z,24.30
2022-09-01T09:19:57.768Z,24.20
2022-09-01T09:22:24.523Z,24.20
2022-09-01T09:24:56.297Z,24.50
2022-09-01T09:27:27.700Z,24.50
2022-09-01T09:29:56.738Z,24.60
2022-09-01T09:32:39.529Z,24.70
2022-09-01T09:35:31.724Z,24.90
2022-09-01T09:38:21.068Z,25.20
2022-09-01T09:41:25.700Z,25.60
2022-09-01T09:43:59.400Z,25.80
2022-09-01T09:46:32.427Z,25.70
2022-09-01T09:49:34.517Z,25.50
2022-09-01T09:52:03.512Z,25.30
2022-09-01T09:54:34.004Z,25.10
2022-09-01T09:57:09.683Z,25.10
2022-09-01T10:00:00.873Z,25.00
2022-09-01T10:02:34.063Z,24.90
2022-09-01T10:05:21.665Z,24.80
2022-09-01T10:07:48.626Z,24.80
2022-09-01T10:10:30.361Z,24.80
2022-09-01T10:12:57.464Z,24.70
2022-09-01T10:15:26.516Z,24.70
2022-09-01T10:18:19.637Z,24.90
2022-09-01T10:20:45.189Z,24.90
2022-09-01T10:23:15.227Z,24.90
2022-09-01T10:25:43.173Z,24.90
2022-09-01T10:28:22.236Z,24.80
2022-09-01T10:30:50.769Z,24.50
2022-09-01T10:33:20.987Z,24.50
2022-09-01T10:35:50.843Z,24.40
2022-09-01T10:38:22.918Z,24.40
2022-09-01T10:41:10.126Z,24.20
2022-09-01T10:43:42.788Z,24.10
2022-09-01T10:46:15.710Z,23.80
2022-09-01T10:48:51.885Z,23.70
2022-09-01T10:51:28.142Z,23.80
2022-09-01T10:54:03.151Z,23.70
2022-09-01T10:56:42.934Z,23.90
2022-09-01T10:59:43.541Z,23.70
2022-09-01T11:02:25.926Z,23.70
2022-09-01T11:05:00.386Z,23.70
2022-09-01T11:07:57.968Z,23.90
2022-09-01T11:10:34.354Z,24.10
2022-09-01T11:13:14.999Z,24.30
2022-09-01T11:15:43.001Z,24.30
2022-09-01T11:18:26.147Z,24.20
2022-09-01T11:20:55.472Z,23.90
2022-09-01T11:23:28.189Z,23.60
2022-09-01T11:26:20.517Z,23.60
2022-09-01T11:28:47.423Z,23.70
2022-09-01T11:31:32.764Z,24.00
2022-09-01T11:34:00.381Z,24.20
2022-09-01T11:36:37.373Z,24.30
2022-09-01T11:39:20.708Z,24.30
2022-09-01T11:42:06.530Z,24.00
2022-09-01T11:44:59.230Z,23.70
2022-09-01T11:47:39.460Z,23.60
2022-09-01T11:50:07.461Z,23.50
2022-09-01T11:52:36.145Z,23.40
2022-09-01T11:55:05.540Z,23.20
2022-09-01T11:57:34.289Z,23.00
2022-09-01T12:00:03.250Z,22.80
2022-09-01T12:02:36.521Z,22.80
2022-09-01T12:05:04.816Z,22.90
2022-09-01T12:07:45.337Z,22.80
2022-09-01T12:10:21.013Z,22.80
2022-09-01T12:12:47.936Z,22.80
2022-09-01T12:15:23.201Z,23.00
2022-09-01T12:17:50.120Z,23.30
2022-09-01T12:20:29.807Z,23.50
2022-09-01T12:22:58.472Z,23.70
2022-09-01T12:25:34.717Z,23.80
2022-09-01T12:28:02.273Z,23.60
2022-09-01T12:30:29.140Z,23.50
2022-09-01T12:33:24.589Z,23.30
2022-09-01T12:35:42.917Z,23.30
2022-09-01T12:38:25.988Z,23.40
2022-09-01T12:40:56.352Z,23.50
2022-09-01T12:43:37.087Z,23.60
2022-09-01T12:46:04.726Z,23.60
2022-09-01T12:48:36.142Z,23.40
2022-09-01T12:51:29.214Z,23.30
2022-09-01T12:53:59.674Z,23.10
2022-09-01T12:56:31.297Z,22.80
2022-09-01T12:59:36.045Z,22.50
2022-09-01T13:02:26.980Z,22.50
2022-09-01T13:04:53.862Z,22.40
2022-09-01T13:07:20.596Z,22.40
2022-09-01T13:09:47.336Z,22.40
2022-09-01T13:12:17.864Z,22.50
2022-09-01T13:14:44.625Z,22.70
2022-09-01T13:17:14.182Z,22.70
2022-09-01T13:19:41.752Z,22.70
2022-09-01T13:22:08.489Z,22.50
2022-09-01T13:24:35.354Z,22.40
2022-09-01T13:29:52.984Z,22.10
2022-09-01T13:32:21.353Z,22.20
2022-09-01T13:34:50.778Z,22.20
2022-09-01T13:37:24.497Z,22.40
2022-09-01T13:39:54.370Z,22.50
2022-09-01T13:42:21.652Z,22.60
2022-09-01T13:44:54.105Z,22.70
2022-09-01T13:47:29.475Z,22.60
2022-09-01T13:50:08.326Z,22.50
2022-09-01T13:52:38.657Z,22.40
2022-09-01T13:55:08.792Z,22.30
2022-09-01T13:57:36.577Z,22.20
2022-09-01T14:00:06.519Z,22.00
2022-09-01T14:02:35.373Z,21.90
2022-09-01T14:05:05.884Z,21.90
2022-09-01T14:07:38.070Z,21.80
2022-09-01T14:10:09.067Z,21.90
2022-09-01T14:12:39.615Z,22.10
2022-09-01T14:15:17.061Z,22.30
2022-09-01T14:17:45.561Z,22.30
2022-09-01T14:20:21.062Z,22.30
2022-09-01T14:22:50.984Z,22.20
2022-09-01T14:25:21.426Z,22.00
2022-09-01T14:27:53.317Z,21.90
2022-09-01T14:30:29.043Z,21.90
2022-09-01T14:33:00.902Z,21.80
2022-09-01T14:35:33.844Z,21.80
2022-09-01T14:38:01.651Z,21.80
2022-09-01T14:40:32.445Z,21.80
2022-09-01T14:43:02.273Z,21.90
2022-09-01T14:45:29.251Z,21.90
2022-09-01T14:47:58.689Z,21.90
2022-09-01T14:50:25.746Z,22.00
2022-09-01T14:52:59.151Z,22.00
2022-09-01T14:55:37.432Z,22.10
2022-09-01T14:58:07.902Z,22.10
2022-09-01T15:00:39.216Z,22.10
2022-09-01T15:03:06.238Z,22.10
2022-09-01T15:05:39.399Z,22.00
2022-09-01T15:08:12.986Z,21.90
2022-09-01T15:10:40.612Z,21.80
2022-09-01T15:13:13.669Z,21.70
2022-09-01T15:15:51.754Z,21.70
2022-09-01T15:18:23.440Z,21.60
2022-09-01T15:20:51.175Z,21.60
2022-09-01T15:23:24.794Z,21.60
2022-09-01T15:25:59.081Z,21.60
2022-09-01T15:28:27.179Z,21.50
2022-09-01T15:30:54.487Z,21.50
2022-09-01T15:33:26.312Z,21.50
2022-09-01T15:35:56.229Z,21.40
2022-09-01T15:38:30.829Z,21.40
2022-09-01T15:41:00.726Z,21.30
2022-09-01T15:43:32.846Z,21.10
2022-09-01T15:46:03.849Z,21.10
2022-09-01T15:48:37.081Z,21.00
2022-09-01T15:51:22.695Z,20.90
2022-09-01T15:53:57.513Z,21.00
2022-09-01T15:56:27.828Z,20.90
2022-09-01T15:59:00.693Z,20.90
2022-09-01T16:01:33.082Z,20.80
2022-09-01T16:04:04.039Z,20.80
2022-09-01T16:06:36.470Z,20.80
2022-09-01T16:09:04.551Z,20.80
2022-09-01T16:11:42.706Z,20.70
2022-09-01T16:14:13.226Z,20.80
2022-09-01T16:17:03.006Z,20.70
2022-09-01T16:19:47.471Z,20.70
2022-09-01T16:22:29.701Z,20.70
2022-09-01T16:25:02.950Z,20.60
2022-09-01T16:27:33.215Z,20.60
2022-09-01T16:30:06.785Z,20.50
2022-09-01T16:32:36.854Z,20.50
2022-09-01T16:35:04.377Z,20.50
2022-09-01T16:37:43.903Z,20.40
2022-09-01T16:40:39.697Z,20.40
2022-09-01T16:43:35.864Z,20.40
2022-09-01T16:46:03.042Z,20.30
2022-09-01T16:48:59.200Z,20.30
2022-09-01T16:51:49.479Z,20.30
2022-09-01T16:54:24.405Z,20.20
2022-09-01T16:57:02.328Z,20.10
2022-09-01T16:59:55.563Z,20.10
2022-09-01T17:02:38.137Z,20.00
2022-09-01T17:05:25.175Z,19.90
2022-09-01T17:08:06.082Z,19.90
2022-09-01T17:10:44.063Z,19.70
2022-09-01T17:13:24.636Z,19.70
2022-09-01T17:16:22.814Z,19.50
2022-09-01T17:19:04.949Z,19.40
2022-09-01T17:22:05.594Z,19.30
2022-09-01T17:24:52.048Z,19.30
2022-09-01T17:27:26.174Z,19.20
2022-09-01T17:29:54.199Z,19.20
2022-09-01T17:32:48.069Z,19.10
2022-09-01T17:35:39.063Z,19.10
2022-09-01T17:38:32.549Z,19.00
2022-09-01T17:41:05.159Z,18.90
2022-09-01T17:43:46.115Z,18.80
2022-09-01T17:46:22.291Z,18.80
2022-09-01T17:48:59.913Z,18.60
2022-09-01T17:51:48.849Z,18.60
2022-09-01T17:54:54.883Z,18.50
2022-09-01T17:57:44.319Z,18.40
2022-09-01T18:00:52.683Z,18.40
2022-09-01T18:03:44.830Z,18.30
2022-09-01T18:06:53.131Z,18.30
2022-09-01T18:09:21.583Z,18.20
2022-09-01T18:12:05.140Z,18.10
2022-09-01T18:14:42.331Z,18.10
2022-09-01T18:17:36.531Z,18.10
2022-09-01T18:20:12.380Z,18.10
2022-09-01T18:22:48.673Z,18.00
2022-09-01T18:25:26.645Z,18.00
2022-09-01T18:27:54.715Z,18.00
2022-09-01T18:30:36.600Z,18.00
2022-09-01T18:33:28.302Z,18.00
2022-09-01T18:36:18.111Z,18.00
2022-09-01T18:38:51.568Z,17.90
2022-09-01T18:41:24.900Z,17.90
2022-09-01T18:44:06.307Z,17.80
2022-09-01T18:47:18.575Z,17.80
2022-09-01T18:50:27.636Z,17.70
2022-09-01T18:53:05.973Z,17.70
2022-09-01T18:55:55.774Z,17.60
2022-09-01T18:58:42.957Z,17.60
2022-09-01T19:01:13.340Z,17.60
2022-09-01T19:04:10.108Z,17.50
2022-09-01T19:07:10.593Z,17.40
2022-09-01T19:10:01.918Z,17.40
2022-09-01T19:12:59.155Z,17.40
2022-09-01T19:15:53.808Z,17.40
2022-09-01T19:18:30.351Z,17.50
2022-09-01T19:21:32.848Z,17.50
2022-09-01T19:24:06.519Z,17.40
2022-09-01T19:26:42.877Z,17.40
2022-09-01T19:29:22.675Z,17.30
2022-09-01T19:31:54.419Z,17.30
2022-09-01T19:34:39.928Z,17.30
2022-09-01T19:37:07.045Z,17.20
2022-09-01T19:39:53.815Z,17.20
2022-09-01T19:42:50.976Z,17.20
2022-09-01T19:45:29.304Z,17.20
2022-09-01T19:48:06.431Z,17.10
2022-09-01T19:50:47.559Z,17.10
2022-09-01T19:53:27.067Z,17.10
2022-09-01T19:56:15.982Z,17.00
2022-09-01T19:58:57.650Z,17.00
2022-09-01T20:02:02.451Z,17.00
2022-09-01T20:04:48.913Z,17.10
2022-09-01T20:07:35.293Z,17.00
2022-09-01T20:10:31.959Z,17.00
2022-09-01T20:13:11.110Z,16.90
2022-09-01T20:15:54.775Z,16.80
2022-09-01T20:18:27.511Z,16.70
2022-09-01T20:20:57.313Z,16.70
2022-09-01T20:23:49.189Z,16.60
2022-09-01T20:26:32.867Z,16.60
2022-09-01T20:29:13.353Z,16.60
2022-09-01T20:31:48.745Z,16.50
2022-09-01T20:34:44.527Z,16.50
2022-09-01T20:37:16.880Z,16.50
2022-09-01T20:40:08.374Z,16.40
2022-09-01T20:42:56.608Z,16.40
2022-09-01T20:45:32.013Z,16.40
2022-09-01T20:48:07.526Z,16.30
2022-09-01T20:50:47.586Z,16.30
2022-09-01T20:53:31.938Z,16.30
2022-09-01T20:56:21.829Z,16.30
2022-09-01T20:59:29.438Z,16.20
2022-09-01T21:02:01.234Z,16.20
2022-09-01T21:04:50.506Z,16.20
2022-09-01T21:07:32.897Z,16.20
2022-09-01T21:10:17.654Z,16.20
2022-09-01T21:12:53.127Z,16.10
2022-09-01T21:15:44.909Z,16.10
2022-09-01T21:18:24.082Z,16.10
2022-09-01T21:21:09.691Z,16.10
2022-09-01T21:23:42.046Z,16.10
2022-09-01T21:26:14.726Z,16.10
2022-09-01T21:28:50.833Z,16.10
2022-09-01T21:31:27.120Z,16.10
2022-09-01T21:33:59.447Z,16.00
2022-09-01T21:36:26.315Z,16.00
2022-09-01T21:38:57.758Z,16.00
2022-09-01T21:41:28.466Z,16.00
2022-09-01T21:43:58.236Z,16.00
2022-09-01T21:46:30.439Z,16.00
2022-09-01T21:49:03.743Z,16.00
2022-09-01T21:51:37.178Z,16.00
2022-09-01T21:54:10.730Z,15.90
2022-09-01T21:56:40.743Z,15.90
2022-09-01T21:59:17.209Z,15.90
2022-09-01T22:01:44.903Z,15.90
2022-09-01T22:04:15.234Z,15.90
2022-09-01T22:06:49.528Z,15.90
2022-09-01T22:09:21.298Z,15.90
2022-09-01T22:11:54.428Z,15.80
2022-09-01T22:14:28.460Z,15.80
2022-09-01T22:17:04.008Z,15.70
2022-09-01T22:19:34.302Z,15.70
2022-09-01T22:22:08.778Z,15.70
2022-09-01T22:24:38.190Z,15.70
2022-09-01T22:27:07.792Z,15.60
2022-09-01T22:29:43.701Z,15.60
2022-09-01T22:32:14.929Z,15.60
2022-09-01T22:34:49.809Z,15.60
2022-09-01T22:37:19.192Z,15.60
2022-09-01T22:39:52.278Z,15.60
2022-09-01T22:42:21.965Z,15.60
2022-09-01T22:44:54.550Z,15.60
2022-09-01T22:47:24.159Z,15.50
2022-09-01T22:49:54.547Z,15.60
2022-09-01T22:52:31.882Z,15.60
2022-09-01T22:55:04.726Z,15.50
2022-09-01T22:57:33.254Z,15.50
2022-09-01T23:00:07.047Z,15.40
2022-09-01T23:02:39.575Z,15.40
2022-09-01T23:05:09.659Z,15.30
2022-09-01T23:07:40.732Z,15.30
2022-09-01T23:10:08.543Z,15.20
2022-09-01T23:12:38.445Z,15.20
2022-09-01T23:15:05.862Z,15.10
2022-09-01T23:17:37.994Z,15.10
2022-09-01T23:20:13.199Z,15.10
2022-09-01T23:22:47.731Z,15.00
2022-09-01T23:25:24.071Z,15.00
2022-09-01T23:27:53.505Z,14.90
2022-09-01T23:30:23.329Z,14.80
2022-09-01T23:32:58.173Z,14.80
2022-09-01T23:35:30.314Z,14.80
2022-09-01T23:38:02.502Z,14.70
2022-09-01T23:40:36.146Z,14.70
2022-09-01T23:43:07.977Z,14.70
2022-09-01T23:45:44.315Z,14.60
2022-09-01T23:48:14.307Z,14.60
2022-09-01T23:50:48.406Z,14.60
2022-09-01T23:53:16.614Z,14.50
2022-09-01T23:55:47.229Z,14.50
2022-09-01T23:58:20.407Z,14.50
